Timeline UpdatesTrip UpdatesNews PostsPvt PostsTravel TipsAdmin PostsConv PostsFollowed PostsChat RequestsBlog PostsPNR Posts

Disclaimer
Search
 
 
Tue Sep 2, 2014 22:14:02 ISTHomeTrainsΣChainsAtlasPNRForumGalleryNewsFAQTripsMembersLoginFeedback
No Recent News for this Train
Other Trains in the News **new
Latest...
Permanent Augmentation of 1 3A coach wef 13/4/14
Fri Apr 04, 2014 (07:11PM)
⇐ Return Journey: Train# 11057

11058/Amritsar - Mumbai LTT (Pathankot) Express

Time-Table HAS CHANGED.
Yesterday (11:45PM)
Change Departure Station:
Change Arrival Station:
Post a Train Travel TipPost a Train Travel Tip **new
Post a Comment/Question/Picture/VideoPost a Comment/Question/Picture/Video
Pantry/Catering
✕ NO Pantry Car
✓ Catering Avbl
RSA - Rake Sharing
No RSA.
Rake/Coach Composition
LOCO-SLR-RMS-S1-S2-S3-S4-S5-S6-S7-S8-B1-B2-B3-A1-MILITARY-GEN-GEN-LDS-[SLR-S10-S9-B4]. ; [SLR-S10-S9-B4] -> Is the Slip portion OF Dhule and attached to the main train at Chalisgaon.
Loco
ASR-UMB --> TKD WDM3A/WDP3A UMB-LTT --> GZB WAP-1/4/5/7
News    PNR    Forum    Time-Table    Availability    Fare Chart    Map    Arr/Dep History    Trips    Gallery    ΣChains    X/O    Timeline    
Travel Time: 1h 5m    1 halts    Distance: 84 km    Avg Speed: 77 km/hr
Type: Mail/Express
Zone: CR/Central
Departs @ 22:30
Platform# ???
SMTWTFS
Palwal/PWL 
Arrives @ 23:35
Platform# 1
SMTWTFS
Mathura Junction/MTJ 

1 halts. 9 intermediate Stations between Palwal and Mathura Junction

Show ALL intermediate Stations  Show Old Time-Table

#CodeStation NameX/OArrivesAvgDepartsAvgHaltPFDay#KmSpeedElevZoneAddress
1ASRAmritsar Junction (5)  -08:30-41-560.377233mNRAmritsar 143002, Punjab
2JNLJandiala (2)X  08:45-08:47-2m21-541.168238mNRJandiala, Punjab
3BEASBeas Junction (2)  09:08-09:10-2m21-517.361238mNRBeas, Punjab
4KREKartarpur (2)X  09:31-09:33-2m11-495.873236mNRKartarpur, Punjab
5JUCJalandhar City Junction (5)X  09:45-09:55-10m21-481.218239mNRJalandhar 144001, Punjab
6JRCJalandhar Cantt. Junction (3)X  10:11-10:13-2m21-476.470239mNRNear Rama Mandi, Punjab
7PGWPhagwara Junction (3)X  10:27-10:29-2m11-460.154245mNRPhagwara, Punjab
8GRYGoraya (2)  10:40-10:42-2m11-450.264240mNRGoraya, Punjab
9PHRPhillaur Junction (3)  10:54-10:56-2m11-437.533246mNRPhillaur, Punjab
10LDHLudhiana Junction (7)  11:20-11:30-10m41-424.429246mNRLudhiana 141001, Punjab
11AHHAhmadgarh (1)X  12:23-12:25-2m11-399.079256mNRAhmedgarh, Punjab
12METMalerkotla (2)  12:40-12:42-2m21-379.153248mNRMalerkotla., Punjab
13DUIDhuri Junction (4)  13:01-13:05-4m--1-362.377248mNRDhuri, Punjab
14NBANabha (1)  13:26-13:28-2m11-335.467250mNRNabha, Punjab
15PTAPatiala (4)X  13:50 13:51-13:53-3 2m11-309.537256mNRPatiala, Punjab
16RPJRajpura Junction (3)OO  14:35 14:33-14:37 14:35-2m21-284.759272mNRNH-1, Punjab
17UBCAmbala City (3)XO  14:56-14:58-2m11-264.221273mNRNH-1, Haryana
18UMBAmbala Cantt. Junction (7)XO15:20-15:50-30m11-256.670278mNRAmbala 133001, Haryana
19SHDMShahbad Markanda (2)  16:09 16:07-16:11 16:09-2m11-236.763267mNRShahabad Markanda, Haryana
20KKDEKurukshetra Junction (3)X  16:32 16:30-16:34 16:32-2m21-214.568260mNRKurukshetra, Haryana
21NLKRNilokheriX  16:51 16:47-16:53 16:49-2m--1-197.534254mNRNilokheri, Haryana
22TRRTaraori (2)X  17:00 16:56-17:02 16:58-2m21-193.640255mNRTaraori, Haryana
23KUNKarnal (3)X  17:16-17:18-2m11-181.566253mNRKarnal, Haryana
24GRAGharaunda (2)  17:34-17:36-2m11-164.051244mNRGharaunda, Haryana
25PNPPanipat Junction (5)X  17:54 17:56-17:56 17:58-2m21-147.068235mNRPanipat, Haryana
26SMKSamalkha (3)  18:13-18:15-2m11-130.167229mNRSamalkha, Haryana
27GNUGanaur  18:28 18:26-18:30 18:28-2m--1-117.853222mNRGanaur, Haryana
28SNPSonipat (3)  18:46-18:48-2m11-101.948225mNRSonipat, Haryana
29RDDERathdhana (2)  19:01-19:03-2m--1-91.550223mNRSonipat, Haryana
30NURNarela (2)  19:11-19:13-2m--1-84.859222mNRNarela, Delhi NCT
31ANDIAdarsh Nagar (2)  19:30-19:32-2m11-68.121214mNRShalimar Bagh, Delhi NCT
32SZMDelhi Sabzi Mandi (2)  19:51-19:53-2m31-61.59220mNRGulabi Bagh, Delhi NCT
33NDLSNew Delhi (16)X  20:20-20:50-30m41-57.434215mNRNew Delhi, Delhi NCT
34NZMDelhi Hazrat Nizamuddin (7)X  21:03-21:05-2m41-50.057209mNRNew Delhi 110013, Delhi NCT
35FDBFaridabad (4)X  21:27-21:29-2m31-29.237206mNRold Faridabad, Haryana
36BVHBallabgarh (5)O  21:42-21:44-2m--1-21.229203mNRFaridabad, Haryana
37PWL»Palwal (8)»  22:28-22:30-2m--10.085200mNRPalwal, Haryana
38KSVKosi Kalan (3)  23:00-23:02-2m2142.575189mNCRKosi Kalan, Uttar Pradesh
39MTJ•Mathura Junction (10)•  23:35-23:40-5m1183.956179mNCRMathura, Uttar Pradesh
40RKMRaja Ki Mandi (4)X  00:33-00:35-2m22133.612170mNCRAgra, Uttar Pradesh
41AGCAgra Cantt. (6)X  00:55-01:05 01:03-10 8m12137.683174mNCRAgra, Uttar Pradesh
42DHODholpur Junction (3)X  01:41-01:43-2m22190.273177mNCRDholpur, Rajasthan
43MRAMorena (3)X  02:05-02:07-2m12217.054176mNCRMorena, Madhya Pradesh
44GWLGwalior Junction (4)X  02:50-02:58-8m12255.677214mNCRGwalior, Madhya Pradesh
45DBADabra (3)X  03:31-03:33-2m22297.949 NCRDabra(District-Gwalior), Madhya Pradesh
46SORSonagir (2)X  03:56-03:58-2m--2316.746211mNCRDatia, Madhya Pradesh
47DAADatia (2)X  04:13-04:15-2m22328.343264mNCRDatia, Madhya Pradesh
48JHSJhansi Junction (7)XO  04:50-05:00-10m52353.367259mNCRJhansi, Uttar Pradesh
49BABBabina (3)X  05:23-05:25-2m12378.852285mNCRBabina, Uttar Pradesh
50BZYBasai (3)X  05:39-05:41-2m12390.951287mNCR07522289600(Gate ManMob. - 9452701575), Madhya Pradesh
51TBTTalbahat (4)X  05:56-05:58-2m12403.752314mNCRKhaniyadhana Station Rd, Madhya Pradesh
52LARLalitpur (3)X  06:39 06:44-06:41 06:46-2m22443.677373mNCRLalitpur, Uttar Pradesh
53JLNJakhalaun (3)O  07:01 06:59-07:03 07:01-2m22460.499394mNCRLalitpur(05176-272220), Uttar Pradesh
54DUADhaura (3)XO  07:10 07:08-07:12 07:10-2m--2471.920407mNCRDhaura Tanda, Madhya Pradesh
55BINABina Junction (4)X  08:55-09:00-5m32506.569414mWCRJn Pt - KATNI/GUNA/ BPL/JHS, Madhya Pradesh
56MABAMandi Bamora (3)X  09:15-09:17-2m22523.878413mWCRState Highway 14, Madhya Pradesh
57BAQGanj Basoda (4)X  09:39-09:41-2m22552.367 WCRVidisha, Madhya Pradesh
58BHSVidisha (3)X  10:16-10:18-2m22591.662 WCRVidisha, Madhya Pradesh
59BPLBhopal Junction (6)X  11:10-11:15-5m12645.138497mWCRBhopal, Madhya Pradesh
60HBJBhopal HabibGanj (5)  11:25-11:27-2m42651.464496mWCRHabibGanj, Madhya Pradesh
61MDDPMandi Dip (1)  11:42-11:44-2m12667.562 WCRMandideep, Madhya Pradesh
62ODGObaidulla Ganj  11:57-11:59-2m12681.054 WCRObaidullaganj Raisen Dist., Madhya Pradesh
63BNIBudni (2)X  12:33-12:35-2m12711.846311mWCRSehore 466445 Madhya pradesh, Madhya Pradesh
64HBDHoshangabad (2)X  12:44-12:46-2m22718.732308mWCRHoshangabad, Madhya Pradesh
65ETItarsi Junction (7)  13:15 13:20-13:20 13:25-5m22736.884329mWCRItarsi 461111, Madhya Pradesh
66BPFBanapura (2)  13:44 13:49-13:46 13:51-2m22770.377314mWCRBanapura, Madhya Pradesh
67TBNTimarni (2)  14:08 14:13-14:10 14:15-2m12798.561308mWCRTimarni, Madhya Pradesh
68HDHarda (3)  14:24 14:29-14:26 14:31-2m12812.676289mWCRHarda, Madhya Pradesh
69KKNKhirkiya (2)X  14:51 14:56-14:53 14:58-2m12844.280281mWCRSH 15, Madhya Pradesh
70CAERChhanera (2)  15:16 15:21-15:18 15:23-2m22874.977283mWCRChhanera, Madhya Pradesh
71TLVTalvadiya (2)X  15:53 15:46-15:55 15:48-2m22904.518308mWCRKhandwa, Madhya Pradesh
72KNWKhandwa Junction (5)X  16:40-16:45-5m32920.378310mCRKhandwa, Madhya Pradesh
73NPNRNepanagar (2)  17:18-17:20-2m--2962.968289mCRState Highway 27, Madhya Pradesh
74BAUBurhanpur (2)  17:43-17:45-2m12989.193269mCRBurhanpur, Madhya Pradesh
75RVRaver (2)X  17:58-18:00-2m--21009.376242mCRJalgaon, Maharashtra
76NBNimbhoraX  18:08-18:10-2m121019.565229mCRJalgaon, Maharashtra
77SAVSavda (2)X  18:18-18:20-2m221028.237220mCRSavda, Maharashtra
78BSLBhusaval Junction (8)X  18:45-18:55-10m421043.663208mCRBhusaval 425201, Maharashtra
79JLJalgaon Junction (4)X  19:18-19:20-2m221067.787213mCRJalgaon 425001, Maharashtra
80PCPachora Junction (4)O  19:53-19:55-2m--21115.440264mCRPachora 424201, Maharashtra
81CSNChalisgaon Junction (3)X  21:00 21:03-21:05-5 2m--21160.3101352mCRChalisgaon 424101, Maharashtra
82MMRManmad Junction (6)X  21:45-21:50-5m321227.864580mCRManmad 423104, Maharashtra
83NKNasik Road (3)X  22:55 22:58-23:00-5 2m321300.643563mCRNashik 422101, Maharashtra
84DVLDevlali (3)X  23:08-23:10-2m221306.329561mCRDist. Nashik 422401, Maharashtra
85IGPIgatpuri (4)X  00:40 00:43-00:45-5 2m331351.243589mCRIgatpuri 422403, Maharashtra
86KYNKalyan Junction (8)  02:40-02:45-5m631433.06710mCRKalyan 421301, Maharashtra
87TNAThane (10)  03:03-03:05-2m831453.22210mCRThane (West) 400602, Maharashtra
88LTTMumbai Lokmanya Tilak Terminus (5)  03:50----31469.7-7mCRMumbai - 400089, Maharashtra
Scroll to Top
Scroll to Bottom